Terminal Aerodrome Forecast
Issued by NWS

Home | Current Version | Previous Version | Text Only | Print | Product List | Glossary On
Versions: 1 2 3 4 5 6 7 8 9 10 11 12 13 14 15 16 17 18 19 20
000
FTUS43 KDVN 091406 AAA
TAFBRL
TAF AMD
KBRL 091406Z 0914/1012 33011G19KT P6SM SCT028 OVC045
      TEMPO 0914/0916 BKN028
     FM091600 31014G24KT P6SM SCT028 BKN040
     FM100000 27007KT P6SM FEW250=

USA.gov is the U.S. government's official web portal to all federal, state and local government web resources and services.